createdAt,value
2022-07-25T00:01:46.861Z,73.00
2022-07-25T00:04:14.528Z,73.10
2022-07-25T00:06:42.317Z,73.10
2022-07-25T00:09:09.109Z,73.10
2022-07-25T00:11:35.818Z,74.10
2022-07-25T00:14:02.784Z,73.30
2022-07-25T00:16:29.817Z,73.20
2022-07-25T00:18:56.523Z,73.30
2022-07-25T00:21:23.199Z,73.30
2022-07-25T00:23:49.932Z,74.00
2022-07-25T00:26:17.077Z,73.30
2022-07-25T00:28:44.139Z,73.40
2022-07-25T00:31:11.063Z,73.40
2022-07-25T00:33:38.022Z,73.40
2022-07-25T00:36:04.899Z,73.40
2022-07-25T00:38:31.601Z,73.30
2022-07-25T00:40:58.226Z,73.50
2022-07-25T00:43:25.285Z,74.10
2022-07-25T00:45:51.990Z,73.50
2022-07-25T00:48:18.703Z,73.40
2022-07-25T00:50:45.407Z,73.30
2022-07-25T00:53:12.175Z,73.50
2022-07-25T00:55:39.001Z,73.40
2022-07-25T00:58:05.676Z,73.40
2022-07-25T01:00:32.530Z,73.40
2022-07-25T01:02:59.302Z,73.30
2022-07-25T01:05:26.297Z,73.30
2022-07-25T01:07:53.102Z,73.40
2022-07-25T01:10:19.956Z,73.30
2022-07-25T01:12:51.004Z,73.30
2022-07-25T01:15:18.647Z,73.20
2022-07-25T01:17:45.525Z,73.10
2022-07-25T01:20:16.676Z,73.10
2022-07-25T01:22:43.693Z,73.70
2022-07-25T01:25:11.244Z,73.00
2022-07-25T01:27:38.235Z,73.00
2022-07-25T01:30:05.954Z,72.90
2022-07-25T01:32:32.656Z,73.00
2022-07-25T01:34:59.376Z,72.90
2022-07-25T01:37:26.095Z,73.70
2022-07-25T01:39:52.856Z,72.90
2022-07-25T01:42:19.542Z,72.80
2022-07-25T01:44:46.232Z,73.10
2022-07-25T01:47:12.951Z,72.90
2022-07-25T01:49:39.939Z,72.80
2022-07-25T01:52:06.711Z,72.80
2022-07-25T01:54:33.433Z,72.70
2022-07-25T01:57:00.159Z,72.80
2022-07-25T01:59:28.432Z,72.80
2022-07-25T02:01:55.133Z,72.90
2022-07-25T02:04:21.909Z,72.90
2022-07-25T02:06:48.768Z,72.90
2022-07-25T02:09:15.502Z,72.90
2022-07-25T02:11:42.175Z,71.30
2022-07-25T02:14:09.135Z,72.80
2022-07-25T02:16:36.199Z,72.70
2022-07-25T02:19:02.879Z,72.70
2022-07-25T02:21:29.590Z,72.60
2022-07-25T02:23:56.350Z,72.70
2022-07-25T02:26:23.036Z,72.70
2022-07-25T02:28:49.980Z,72.50
2022-07-25T02:31:17.029Z,72.60
2022-07-25T02:33:43.796Z,72.50
2022-07-25T02:36:11.108Z,72.60
2022-07-25T02:38:38.051Z,72.50
2022-07-25T02:41:05.139Z,72.50
2022-07-25T02:43:31.971Z,72.50
2022-07-25T02:45:58.710Z,72.50
2022-07-25T02:48:25.464Z,72.50
2022-07-25T02:50:52.126Z,72.50
2022-07-25T02:53:39.963Z,72.50
2022-07-25T02:56:05.777Z,72.50
2022-07-25T02:58:32.665Z,72.50
2022-07-25T03:00:59.365Z,72.50
2022-07-25T03:03:26.127Z,72.50
2022-07-25T03:05:53.551Z,72.50
2022-07-25T03:08:20.316Z,72.40
2022-07-25T03:10:47.013Z,73.10
2022-07-25T03:13:13.761Z,72.50
2022-07-25T03:15:40.517Z,73.50
2022-07-25T03:18:07.802Z,72.40
2022-07-25T03:20:34.455Z,72.50
2022-07-25T03:23:01.146Z,72.50
2022-07-25T03:25:27.883Z,72.50
2022-07-25T03:27:54.593Z,72.50
2022-07-25T03:30:21.271Z,72.50
2022-07-25T03:32:48.213Z,72.50
2022-07-25T03:35:15.518Z,72.50
2022-07-25T03:37:42.723Z,72.50
2022-07-25T03:40:09.700Z,72.50
2022-07-25T03:42:36.465Z,72.50
2022-07-25T03:45:03.396Z,72.50
2022-07-25T03:47:30.094Z,72.50
2022-07-25T03:49:56.743Z,72.50
2022-07-25T03:52:23.463Z,72.10
2022-07-25T03:54:50.182Z,71.60
2022-07-25T03:57:16.870Z,71.20
2022-07-25T03:59:43.609Z,70.90
2022-07-25T04:02:11.370Z,70.80
2022-07-25T04:04:38.143Z,70.70
2022-07-25T04:07:04.848Z,70.70
2022-07-25T04:09:33.789Z,70.50
2022-07-25T04:12:01.643Z,70.80
2022-07-25T04:14:28.304Z,70.60
2022-07-25T04:16:55.105Z,70.60
2022-07-25T04:19:21.815Z,70.70
2022-07-25T04:21:49.048Z,70.70
2022-07-25T04:24:15.892Z,70.70
2022-07-25T04:26:42.883Z,70.80
2022-07-25T04:29:09.583Z,71.00
2022-07-25T04:31:36.344Z,70.90
2022-07-25T04:34:03.439Z,71.00
2022-07-25T04:36:30.263Z,71.00
2022-07-25T04:38:56.918Z,71.00
2022-07-25T04:41:23.606Z,71.10
2022-07-25T04:43:50.371Z,71.00
2022-07-25T04:46:20.559Z,71.10
2022-07-25T04:48:47.639Z,71.10
2022-07-25T04:51:15.325Z,71.20
2022-07-25T04:53:42.020Z,71.20
2022-07-25T04:56:08.883Z,71.30
2022-07-25T04:58:35.762Z,71.20
2022-07-25T05:01:02.539Z,71.30
2022-07-25T05:03:29.314Z,71.30
2022-07-25T05:05:55.944Z,71.40
2022-07-25T05:08:22.654Z,71.40
2022-07-25T05:10:49.357Z,71.40
2022-07-25T05:13:16.302Z,71.50
2022-07-25T05:15:43.023Z,71.50
2022-07-25T05:18:09.686Z,71.50
2022-07-25T05:20:36.374Z,71.80
2022-07-25T05:23:03.172Z,71.60
2022-07-25T05:25:29.929Z,71.60
2022-07-25T05:27:58.607Z,71.60
2022-07-25T05:30:25.380Z,71.60
2022-07-25T05:32:52.469Z,71.50
2022-07-25T05:35:19.174Z,71.60
2022-07-25T05:37:45.868Z,71.60
2022-07-25T05:40:13.228Z,71.70
2022-07-25T05:42:39.969Z,71.70
2022-07-25T05:45:06.952Z,71.60
2022-07-25T05:47:33.622Z,71.40
2022-07-25T05:50:01.581Z,71.30
2022-07-25T05:52:28.339Z,71.50
2022-07-25T05:54:55.029Z,71.60
2022-07-25T05:57:21.753Z,71.60
2022-07-25T05:59:48.752Z,71.50
2022-07-25T06:02:15.550Z,71.50
2022-07-25T06:04:42.235Z,71.60
2022-07-25T06:07:08.931Z,71.50
2022-07-25T06:09:38.682Z,71.50
2022-07-25T06:12:05.657Z,71.50
2022-07-25T06:14:32.704Z,71.20
2022-07-25T06:16:59.424Z,71.30
2022-07-25T06:19:26.135Z,71.50
2022-07-25T06:21:52.817Z,71.60
2022-07-25T06:24:19.472Z,71.50
2022-07-25T06:26:46.184Z,71.20
2022-07-25T06:29:12.809Z,70.90
2022-07-25T06:31:39.952Z,71.70
2022-07-25T06:34:07.244Z,71.30
2022-07-25T06:36:34.316Z,71.40
2022-07-25T06:39:01.233Z,71.80
2022-07-25T06:41:27.888Z,73.40
2022-07-25T06:43:54.576Z,72.10
2022-07-25T06:46:21.348Z,72.20
2022-07-25T06:48:48.141Z,72.00
2022-07-25T06:51:14.945Z,72.30
2022-07-25T06:53:41.702Z,72.50
2022-07-25T06:56:10.494Z,72.50
2022-07-25T06:58:38.901Z,72.70
2022-07-25T07:01:05.696Z,72.60
2022-07-25T07:03:38.039Z,72.70
2022-07-25T07:06:05.414Z,72.60
2022-07-25T07:08:32.084Z,72.60
2022-07-25T07:10:58.753Z,72.60
2022-07-25T07:13:25.790Z,72.60
2022-07-25T07:15:52.939Z,72.80
2022-07-25T07:18:20.320Z,72.70
2022-07-25T07:20:47.360Z,73.10
2022-07-25T07:23:14.944Z,73.10
2022-07-25T07:25:44.037Z,73.10
2022-07-25T07:28:10.765Z,73.00
2022-07-25T07:31:13.412Z,73.30
2022-07-25T07:33:24.062Z,73.40
2022-07-25T07:35:50.764Z,73.30
2022-07-25T07:38:18.309Z,73.60
2022-07-25T07:40:45.028Z,73.70
2022-07-25T07:43:11.733Z,73.40
2022-07-25T07:45:38.484Z,73.70
2022-07-25T07:48:06.290Z,73.60
2022-07-25T07:50:32.999Z,73.70
2022-07-25T07:52:59.784Z,73.80
2022-07-25T07:56:05.042Z,73.60
2022-07-25T07:58:31.716Z,73.60
2022-07-25T08:00:58.439Z,73.60
2022-07-25T08:03:25.214Z,74.50
2022-07-25T08:05:52.053Z,73.60
2022-07-25T08:08:18.904Z,73.90
2022-07-25T08:10:46.289Z,73.80
2022-07-25T08:13:14.413Z,73.70
2022-07-25T08:15:41.539Z,73.50
2022-07-25T08:18:16.999Z,73.60
2022-07-25T08:20:47.808Z,73.40
2022-07-25T08:23:14.569Z,73.50
2022-07-25T08:25:41.749Z,73.50
2022-07-25T08:28:08.702Z,73.30
2022-07-25T08:30:36.329Z,73.30
2022-07-25T08:33:04.447Z,73.40
2022-07-25T08:35:31.777Z,73.30
2022-07-25T08:37:59.199Z,73.20
2022-07-25T08:40:26.945Z,73.10
2022-07-25T08:42:55.055Z,73.40
2022-07-25T08:45:22.171Z,73.80
2022-07-25T08:47:50.138Z,73.70
2022-07-25T08:50:19.451Z,73.30
2022-07-25T08:52:47.683Z,73.20
2022-07-25T08:55:16.820Z,73.10
2022-07-25T08:57:44.020Z,73.20
2022-07-25T09:00:14.516Z,73.40
2022-07-25T09:02:41.634Z,73.20
2022-07-25T09:05:08.780Z,73.30
2022-07-25T09:07:36.660Z,73.30
2022-07-25T09:10:13.198Z,72.90
2022-07-25T09:12:40.793Z,73.20
2022-07-25T09:15:08.951Z,73.10
2022-07-25T09:17:36.911Z,72.90
2022-07-25T09:20:06.484Z,73.00
2022-07-25T09:22:42.861Z,73.10
2022-07-25T09:25:19.454Z,73.10
2022-07-25T09:27:46.417Z,73.00
2022-07-25T09:30:14.155Z,73.10
2022-07-25T09:32:40.992Z,72.90
2022-07-25T09:35:07.796Z,72.90
2022-07-25T09:37:34.455Z,73.10
2022-07-25T09:40:01.095Z,73.70
2022-07-25T09:42:29.177Z,73.00
2022-07-25T09:45:11.506Z,73.00
2022-07-25T09:47:49.936Z,73.20
2022-07-25T09:50:17.016Z,73.20
2022-07-25T09:52:44.784Z,73.50
2022-07-25T09:55:14.037Z,74.10
2022-07-25T09:57:41.009Z,73.50
2022-07-25T10:00:09.031Z,73.30
2022-07-25T10:02:47.429Z,73.50
2022-07-25T10:05:16.082Z,73.60
2022-07-25T10:07:45.211Z,73.70
2022-07-25T10:10:21.067Z,73.70
2022-07-25T10:12:58.340Z,73.80
2022-07-25T10:15:25.048Z,73.70
2022-07-25T10:18:02.030Z,73.80
2022-07-25T10:20:28.845Z,73.80
2022-07-25T10:22:57.018Z,74.00
2022-07-25T10:25:24.410Z,73.90
2022-07-25T10:27:53.672Z,73.80
2022-07-25T10:30:25.610Z,73.90
2022-07-25T10:32:59.809Z,73.60
2022-07-25T10:35:27.622Z,73.70
2022-07-25T10:37:55.394Z,73.80
2022-07-25T10:40:26.126Z,73.60
2022-07-25T10:43:02.534Z,73.70
2022-07-25T10:45:38.558Z,73.60
2022-07-25T10:48:10.108Z,73.90
2022-07-25T10:50:55.304Z,73.90
2022-07-25T10:53:33.771Z,74.00
2022-07-25T10:56:06.592Z,73.90
2022-07-25T10:58:44.103Z,74.10
2022-07-25T11:01:11.107Z,74.10
2022-07-25T11:03:37.914Z,74.10
2022-07-25T11:06:04.696Z,74.10
2022-07-25T11:08:32.583Z,74.00
2022-07-25T11:10:59.328Z,74.10
2022-07-25T11:13:26.163Z,74.00
2022-07-25T11:15:56.275Z,73.90
2022-07-25T11:18:36.804Z,74.00
2022-07-25T11:21:06.649Z,73.80
2022-07-25T11:23:37.068Z,73.90
2022-07-25T11:26:08.083Z,74.00
2022-07-25T11:28:42.864Z,74.10
2022-07-25T11:31:09.743Z,74.20
2022-07-25T11:33:38.901Z,74.20
2022-07-25T11:36:06.149Z,74.10
2022-07-25T11:38:33.292Z,74.00
2022-07-25T11:41:00.252Z,74.00
2022-07-25T11:43:27.204Z,73.70
2022-07-25T11:46:01.384Z,73.90
2022-07-25T11:48:36.035Z,74.00
2022-07-25T11:51:29.537Z,73.90
2022-07-25T11:53:56.193Z,73.90
2022-07-25T11:56:41.990Z,74.20
2022-07-25T11:59:10.201Z,74.20
2022-07-25T12:01:38.801Z,75.10
2022-07-25T12:04:09.580Z,74.20
2022-07-25T12:06:36.373Z,74.20
2022-07-25T12:09:22.100Z,74.20
2022-07-25T12:11:49.226Z,74.40
2022-07-25T12:14:16.213Z,74.40
2022-07-25T12:16:42.967Z,75.20
2022-07-25T12:19:17.581Z,74.10
2022-07-25T12:21:44.459Z,74.20
2022-07-25T12:24:11.172Z,74.10
2022-07-25T12:26:37.889Z,74.40
2022-07-25T12:29:05.237Z,74.40
2022-07-25T12:31:32.234Z,74.30
2022-07-25T12:33:59.325Z,74.10
2022-07-25T12:36:26.038Z,74.30
2022-07-25T12:38:52.747Z,74.50
2022-07-25T12:41:22.750Z,74.50
2022-07-25T12:43:49.921Z,74.60
2022-07-25T12:46:16.750Z,74.60
2022-07-25T12:48:44.085Z,74.70
2022-07-25T12:51:11.925Z,74.40
2022-07-25T12:53:42.239Z,74.30
2022-07-25T12:56:09.564Z,74.40
2022-07-25T12:58:36.674Z,74.40
2022-07-25T13:01:04.008Z,74.30
2022-07-25T13:03:30.724Z,74.40
2022-07-25T13:05:57.431Z,74.50
2022-07-25T13:08:24.192Z,74.40
2022-07-25T13:10:50.923Z,74.40
2022-07-25T13:13:17.583Z,74.70
2022-07-25T13:15:44.271Z,74.60
2022-07-25T13:18:11.150Z,74.70
2022-07-25T13:20:37.873Z,74.60
2022-07-25T13:23:04.627Z,74.50
2022-07-25T13:25:32.354Z,74.50
2022-07-25T13:27:59.136Z,74.60
2022-07-25T13:30:26.001Z,74.70
2022-07-25T13:32:53.579Z,74.70
2022-07-25T13:35:21.917Z,75.00
2022-07-25T13:37:50.259Z,74.70
2022-07-25T13:40:17.007Z,74.10
2022-07-25T13:42:43.661Z,74.10
2022-07-25T13:45:10.532Z,74.70
2022-07-25T13:47:37.318Z,74.20
2022-07-25T13:50:04.159Z,74.50
2022-07-25T13:52:30.867Z,74.40
2022-07-25T13:54:57.588Z,74.50
2022-07-25T13:57:24.280Z,74.40
2022-07-25T13:59:50.975Z,74.30
2022-07-25T14:02:17.729Z,74.30
2022-07-25T14:04:44.434Z,74.30
2022-07-25T14:07:11.089Z,74.40
2022-07-25T14:09:38.031Z,74.20
2022-07-25T14:12:04.915Z,74.30
2022-07-25T14:14:31.617Z,74.40
2022-07-25T14:16:58.429Z,74.40
2022-07-25T14:19:25.207Z,74.50
2022-07-25T14:21:51.878Z,74.40
2022-07-25T14:24:18.575Z,74.30
2022-07-25T14:26:45.300Z,74.30
2022-07-25T14:29:12.235Z,74.50
2022-07-25T14:31:39.768Z,74.90
2022-07-25T14:34:06.767Z,74.50
2022-07-25T14:36:33.695Z,74.20
2022-07-25T14:39:01.442Z,74.30
2022-07-25T14:41:28.123Z,74.40
2022-07-25T14:43:54.806Z,74.40
2022-07-25T14:46:21.553Z,74.50
2022-07-25T14:48:48.325Z,74.50
2022-07-25T14:51:15.014Z,74.40
2022-07-25T14:53:41.679Z,74.30
2022-07-25T14:56:08.435Z,74.40
2022-07-25T14:58:35.434Z,74.40
2022-07-25T15:01:02.346Z,74.40
2022-07-25T15:03:29.183Z,74.40
2022-07-25T15:05:55.926Z,74.50
2022-07-25T15:08:22.827Z,74.30
2022-07-25T15:10:49.507Z,74.20
2022-07-25T15:13:32.420Z,74.10
2022-07-25T15:15:59.616Z,74.20
2022-07-25T15:18:26.354Z,74.50
2022-07-25T15:20:53.049Z,74.50
2022-07-25T15:23:21.217Z,74.40
2022-07-25T15:26:04.360Z,74.40
2022-07-25T15:28:35.097Z,74.50
2022-07-25T15:31:01.948Z,74.50
2022-07-25T15:33:29.003Z,74.50
2022-07-25T15:35:55.860Z,74.50
2022-07-25T15:38:22.656Z,74.60
2022-07-25T15:40:49.326Z,74.50
2022-07-25T15:43:16.085Z,74.50
2022-07-25T15:45:43.820Z,74.50
2022-07-25T15:48:11.377Z,74.60
2022-07-25T15:50:40.982Z,74.60
2022-07-25T15:53:07.782Z,74.70
2022-07-25T15:55:34.522Z,74.70
2022-07-25T15:58:01.152Z,74.70
2022-07-25T16:00:29.804Z,74.60
2022-07-25T16:02:56.699Z,74.60
2022-07-25T16:05:23.462Z,75.20
2022-07-25T16:07:50.204Z,74.70
2022-07-25T16:10:16.987Z,74.70
2022-07-25T16:12:43.845Z,74.60
2022-07-25T16:15:11.069Z,74.60
2022-07-25T16:17:37.970Z,74.70
2022-07-25T16:20:06.663Z,74.70
2022-07-25T16:22:33.675Z,74.80
2022-07-25T16:25:03.435Z,74.90
2022-07-25T16:27:30.188Z,74.90
2022-07-25T16:29:57.022Z,74.90
2022-07-25T16:32:23.750Z,74.80
2022-07-25T16:34:50.454Z,74.90
2022-07-25T16:37:17.319Z,74.90
2022-07-25T16:39:44.013Z,74.90
2022-07-25T16:42:10.680Z,74.90
2022-07-25T16:44:37.350Z,74.80
2022-07-25T16:47:04.394Z,75.00
2022-07-25T16:49:31.504Z,74.90
2022-07-25T16:51:58.227Z,74.90
2022-07-25T16:54:25.503Z,74.90
2022-07-25T16:56:54.226Z,75.10
2022-07-25T16:59:23.393Z,75.10
2022-07-25T17:01:50.096Z,75.00
2022-07-25T17:04:17.178Z,75.80
2022-07-25T17:06:44.097Z,75.10
2022-07-25T17:09:11.191Z,75.00
2022-07-25T17:11:37.943Z,75.20
2022-07-25T17:14:04.795Z,75.60
2022-07-25T17:16:32.388Z,75.20
2022-07-25T17:18:59.129Z,75.20
2022-07-25T17:21:25.808Z,75.40
2022-07-25T17:23:53.330Z,75.30
2022-07-25T17:26:20.450Z,75.20
2022-07-25T17:28:47.463Z,75.30
2022-07-25T17:31:14.641Z,75.30
2022-07-25T17:33:41.399Z,75.20
2022-07-25T17:36:08.302Z,75.20
2022-07-25T17:38:35.289Z,75.30
2022-07-25T17:41:02.322Z,75.00
2022-07-25T17:43:29.138Z,75.30
2022-07-25T17:45:56.118Z,75.30
2022-07-25T17:48:22.791Z,75.20
2022-07-25T17:50:49.578Z,75.40
2022-07-25T17:53:18.164Z,75.60
2022-07-25T17:55:45.166Z,75.70
2022-07-25T17:58:12.044Z,75.70
2022-07-25T18:00:38.734Z,76.20
2022-07-25T18:03:05.789Z,76.00
2022-07-25T18:05:32.509Z,76.10
2022-07-25T18:07:59.360Z,76.20
2022-07-25T18:10:26.073Z,76.20
2022-07-25T18:12:52.996Z,76.40
2022-07-25T18:15:19.744Z,76.30
2022-07-25T18:17:47.430Z,76.60
2022-07-25T18:20:14.859Z,76.80
2022-07-25T18:22:41.669Z,76.70
2022-07-25T18:25:11.271Z,76.60
2022-07-25T18:27:42.143Z,76.80
2022-07-25T18:30:10.738Z,76.40
2022-07-25T18:32:37.872Z,76.80
2022-07-25T18:35:06.188Z,76.70
2022-07-25T18:37:32.946Z,77.80
2022-07-25T18:39:59.695Z,77.70
2022-07-25T18:42:29.962Z,77.60
2022-07-25T18:44:57.093Z,77.30
2022-07-25T18:47:26.513Z,77.90
2022-07-25T18:49:59.248Z,78.30
2022-07-25T18:52:26.001Z,78.90
2022-07-25T18:54:52.814Z,78.80
2022-07-25T18:57:20.630Z,80.10
2022-07-25T18:59:47.648Z,80.70
2022-07-25T19:02:14.529Z,80.50
2022-07-25T19:04:41.432Z,80.20
2022-07-25T19:07:09.058Z,80.90
2022-07-25T19:09:35.845Z,80.10
2022-07-25T19:12:02.549Z,80.00
2022-07-25T19:14:30.698Z,79.30
2022-07-25T19:16:58.195Z,79.70
2022-07-25T19:19:25.559Z,79.20
2022-07-25T19:21:52.689Z,79.40
2022-07-25T19:24:19.516Z,79.20
2022-07-25T19:26:48.329Z,79.40
2022-07-25T19:29:16.637Z,79.30
2022-07-25T19:31:43.611Z,79.30
2022-07-25T19:34:11.119Z,79.10
2022-07-25T19:36:38.174Z,79.00
2022-07-25T19:39:06.267Z,78.80
2022-07-25T19:41:33.630Z,79.20
2022-07-25T19:44:00.376Z,79.30
2022-07-25T19:46:31.229Z,80.50
2022-07-25T19:48:58.384Z,80.60
2022-07-25T19:51:25.796Z,80.20
2022-07-25T19:53:52.621Z,80.00
2022-07-25T19:56:24.465Z,79.60
2022-07-25T19:58:51.280Z,80.10
2022-07-25T20:01:18.055Z,80.20
2022-07-25T20:03:44.799Z,80.30
2022-07-25T20:06:11.632Z,80.10
2022-07-25T20:08:39.609Z,80.30
2022-07-25T20:11:07.407Z,80.40
2022-07-25T20:13:36.241Z,81.10
2022-07-25T20:16:04.024Z,81.10
2022-07-25T20:18:30.839Z,80.20
2022-07-25T20:20:58.093Z,80.40
2022-07-25T20:23:31.176Z,80.40
2022-07-25T20:25:58.147Z,80.50
2022-07-25T20:28:30.204Z,80.10
2022-07-25T20:30:57.559Z,80.30
2022-07-25T20:33:27.257Z,80.30
2022-07-25T20:35:54.905Z,81.00
2022-07-25T20:38:40.147Z,80.70
2022-07-25T20:41:18.093Z,79.60
2022-07-25T20:44:17.188Z,80.00
2022-07-25T20:46:44.006Z,79.40
2022-07-25T20:49:22.005Z,80.20
2022-07-25T20:51:54.025Z,79.40
2022-07-25T20:54:21.468Z,78.80
2022-07-25T20:56:50.449Z,80.30
2022-07-25T20:59:17.290Z,79.20
2022-07-25T21:01:44.184Z,79.80
2022-07-25T21:04:10.959Z,78.80
2022-07-25T21:06:37.702Z,79.20
2022-07-25T21:09:05.254Z,78.80
2022-07-25T21:11:32.249Z,80.00
2022-07-25T21:13:58.979Z,78.80
2022-07-25T21:16:43.139Z,78.80
2022-07-25T21:19:10.368Z,78.80
2022-07-25T21:21:40.681Z,78.80
2022-07-25T21:24:07.476Z,78.70
2022-07-25T21:26:34.265Z,78.60
2022-07-25T21:29:04.607Z,78.70
2022-07-25T21:31:35.724Z,78.50
2022-07-25T21:34:03.093Z,78.60
2022-07-25T21:36:29.979Z,78.90
2022-07-25T21:38:56.725Z,78.90
2022-07-25T21:41:23.556Z,78.80
2022-07-25T21:43:50.908Z,78.70
2022-07-25T21:46:17.789Z,79.20
2022-07-25T21:49:03.434Z,78.40
2022-07-25T21:51:40.389Z,78.50
2022-07-25T21:54:08.031Z,78.60
2022-07-25T21:56:34.895Z,78.60
2022-07-25T21:59:01.684Z,78.30
2022-07-25T22:01:28.403Z,78.70
2022-07-25T22:03:55.431Z,78.60
2022-07-25T22:06:25.293Z,79.00
2022-07-25T22:08:52.068Z,79.40
2022-07-25T22:11:38.612Z,79.80
2022-07-25T22:14:05.783Z,79.70
2022-07-25T22:16:32.656Z,79.70
2022-07-25T22:18:59.856Z,79.60
2022-07-25T22:21:27.119Z,80.60
2022-07-25T22:23:53.923Z,81.30
2022-07-25T22:26:20.870Z,81.90
2022-07-25T22:28:47.991Z,82.20
2022-07-25T22:31:15.210Z,82.40
2022-07-25T22:33:44.864Z,82.20
2022-07-25T22:36:11.637Z,82.90
2022-07-25T22:38:38.454Z,82.50
2022-07-25T22:41:05.298Z,82.20
2022-07-25T22:43:56.919Z,81.60
2022-07-25T22:46:19.214Z,82.60
2022-07-25T22:48:46.183Z,81.50
2022-07-25T22:51:14.628Z,81.40
2022-07-25T22:53:41.490Z,81.60
2022-07-25T22:56:08.371Z,81.20
2022-07-25T22:58:35.154Z,80.70
2022-07-25T23:01:02.114Z,80.90
2022-07-25T23:03:30.631Z,80.70
2022-07-25T23:05:59.837Z,80.50
2022-07-25T23:08:26.732Z,80.60
2022-07-25T23:10:53.551Z,80.90
2022-07-25T23:13:20.684Z,80.80
2022-07-25T23:15:49.302Z,81.10
2022-07-25T23:18:17.552Z,80.80
2022-07-25T23:20:45.383Z,81.20
2022-07-25T23:23:14.226Z,81.70
2022-07-25T23:25:41.101Z,81.10
2022-07-25T23:28:08.158Z,81.20
2022-07-25T23:30:40.615Z,81.30
2022-07-25T23:33:13.712Z,80.90
2022-07-25T23:36:05.016Z,80.90
2022-07-25T23:38:37.813Z,81.10
2022-07-25T23:41:16.698Z,80.90
2022-07-25T23:43:59.206Z,80.90
2022-07-25T23:46:29.421Z,80.10
2022-07-25T23:49:07.648Z,81.40
2022-07-25T23:51:34.596Z,80.50
2022-07-25T23:54:01.468Z,81.50
2022-07-25T23:56:28.200Z,82.40
2022-07-25T23:58:54.956Z,80.70
